createdAt,value
2022-11-23T00:01:34.494Z,4.90
2022-11-23T00:04:02.610Z,5.93
2022-11-23T00:06:30.208Z,4.97
2022-11-23T00:08:57.775Z,3.77
2022-11-23T00:11:27.711Z,5.33
2022-11-23T00:13:55.463Z,4.40
2022-11-23T00:16:23.644Z,5.30
2022-11-23T00:18:53.631Z,6.17
2022-11-23T00:21:22.083Z,7.90
2022-11-23T00:23:49.846Z,7.47
2022-11-23T00:26:18.118Z,6.10
2022-11-23T00:28:47.182Z,4.23
2022-11-23T00:31:15.529Z,4.43
2022-11-23T00:33:43.683Z,8.83
2022-11-23T00:36:12.529Z,6.43
2022-11-23T00:38:40.717Z,4.23
2022-11-23T00:41:09.452Z,5.57
2022-11-23T00:43:37.328Z,9.80
2022-11-23T00:46:07.638Z,5.37
2022-11-23T00:48:35.203Z,4.07
2022-11-23T00:51:04.366Z,5.30
2022-11-23T00:53:31.816Z,6.43
2022-11-23T00:55:59.337Z,7.50
2022-11-23T00:58:28.327Z,5.43
2022-11-23T01:01:03.349Z,5.67
2022-11-23T01:03:34.669Z,6.67
2022-11-23T01:06:06.251Z,5.07
2022-11-23T01:08:33.754Z,6.17
2022-11-23T01:11:02.333Z,5.73
2022-11-23T01:13:30.160Z,5.33
2022-11-23T01:15:58.122Z,8.27
2022-11-23T01:18:26.219Z,5.43
2022-11-23T01:20:55.540Z,7.23
2022-11-23T01:23:23.187Z,6.67
2022-11-23T01:25:55.636Z,6.80
2022-11-23T01:28:24.521Z,6.07
2022-11-23T01:30:51.932Z,5.70
2022-11-23T01:33:19.907Z,8.73
2022-11-23T01:35:47.884Z,6.90
2022-11-23T01:38:18.370Z,6.17
2022-11-23T01:40:46.080Z,5.13
2022-11-23T01:43:16.554Z,5.53
2022-11-23T01:45:45.239Z,6.90
2022-11-23T01:48:15.819Z,4.80
2022-11-23T01:50:43.622Z,6.30
2022-11-23T01:53:11.249Z,5.97
2022-11-23T01:55:40.246Z,4.90
2022-11-23T01:58:09.726Z,9.73
2022-11-23T02:00:37.350Z,5.27
2022-11-23T02:03:05.544Z,7.10
2022-11-23T02:05:36.481Z,7.10
2022-11-23T02:08:04.220Z,6.07
2022-11-23T02:10:32.342Z,8.17
2022-11-23T02:13:03.907Z,6.13
2022-11-23T02:15:31.489Z,4.30
2022-11-23T02:18:00.237Z,5.30
2022-11-23T02:20:27.926Z,5.37
2022-11-23T02:23:00.213Z,6.00
2022-11-23T02:25:31.673Z,7.17
2022-11-23T02:28:00.930Z,5.43
2022-11-23T02:30:29.691Z,6.40
2022-11-23T02:36:52.544Z,6.13
2022-11-23T02:39:23.148Z,7.03
2022-11-23T02:41:51.398Z,7.03
2022-11-23T02:44:24.010Z,6.90
2022-11-23T02:46:51.971Z,6.43
2022-11-23T02:49:19.620Z,7.20
2022-11-23T02:51:47.112Z,7.03
2022-11-23T02:54:14.545Z,5.90
2022-11-23T02:56:42.054Z,5.27
2022-11-23T02:59:09.819Z,6.03
2022-11-23T03:01:40.063Z,6.20
2022-11-23T03:04:07.710Z,6.73
2022-11-23T03:06:35.210Z,6.10
2022-11-23T03:09:03.448Z,4.83
2022-11-23T03:11:31.548Z,7.50
2022-11-23T03:13:59.033Z,6.47
2022-11-23T03:16:28.528Z,6.83
2022-11-23T03:18:57.325Z,6.70
2022-11-23T03:21:24.980Z,7.03
2022-11-23T03:23:52.602Z,7.47
2022-11-23T03:26:21.325Z,6.33
2022-11-23T03:28:58.635Z,5.47
2022-11-23T03:31:29.128Z,5.40
2022-11-23T03:33:57.989Z,6.57
2022-11-23T03:36:26.446Z,8.97
2022-11-23T03:38:53.919Z,7.03
2022-11-23T03:41:33.388Z,6.00
2022-11-23T03:44:00.975Z,4.67
2022-11-23T03:46:28.517Z,7.23
2022-11-23T03:48:56.092Z,5.90
2022-11-23T03:51:24.966Z,6.40
2022-11-23T03:53:52.659Z,5.77
2022-11-23T03:56:20.818Z,5.93
2022-11-23T03:58:48.402Z,5.90
2022-11-23T04:01:15.939Z,5.33
2022-11-23T04:03:46.128Z,5.83
2022-11-23T04:06:21.046Z,6.20
2022-11-23T04:09:06.140Z,5.83
2022-11-23T04:11:46.782Z,6.07
2022-11-23T04:14:14.286Z,6.13
2022-11-23T04:16:41.787Z,5.77
2022-11-23T04:19:09.233Z,5.13
2022-11-23T04:21:37.005Z,5.53
2022-11-23T04:24:06.485Z,5.83
2022-11-23T04:26:36.436Z,4.97
2022-11-23T04:29:04.010Z,5.43
2022-11-23T04:31:33.901Z,5.17
2022-11-23T04:34:10.362Z,8.90
2022-11-23T04:36:38.884Z,18.73
2022-11-23T04:39:08.438Z,28.03
2022-11-23T04:41:45.504Z,39.10
2022-11-23T04:44:13.047Z,14.47
2022-11-23T04:46:41.900Z,15.03
2022-11-23T04:49:13.319Z,8.90
2022-11-23T04:51:40.924Z,5.63
2022-11-23T04:54:11.182Z,7.97
2022-11-23T04:56:47.308Z,5.33
2022-11-23T04:59:15.014Z,6.67
2022-11-23T05:01:43.599Z,6.17
2022-11-23T05:04:31.360Z,8.60
2022-11-23T05:06:58.889Z,9.17
2022-11-23T05:09:27.786Z,7.40
2022-11-23T05:12:07.463Z,8.23
2022-11-23T05:14:35.870Z,7.57
2022-11-23T05:17:04.483Z,7.87
2022-11-23T05:19:32.236Z,7.77
2022-11-23T05:22:00.160Z,31.07
2022-11-23T05:24:29.845Z,43.60
2022-11-23T05:27:07.324Z,21.90
2022-11-23T05:29:35.165Z,32.90
2022-11-23T05:32:03.600Z,24.53
2022-11-23T05:34:31.222Z,47.80
2022-11-23T05:36:58.756Z,23.13
2022-11-23T05:39:26.476Z,13.60
2022-11-23T05:41:56.225Z,11.03
2022-11-23T05:44:33.055Z,6.47
2022-11-23T05:47:00.616Z,7.53
2022-11-23T05:49:32.116Z,5.50
2022-11-23T05:52:00.210Z,5.43
2022-11-23T05:54:29.537Z,7.27
2022-11-23T05:57:04.426Z,5.57
2022-11-23T05:59:51.240Z,7.73
2022-11-23T06:02:23.238Z,6.77
2022-11-23T06:04:55.434Z,8.20
2022-11-23T06:07:32.866Z,6.13
2022-11-23T06:10:06.447Z,5.03
2022-11-23T06:12:37.246Z,6.27
2022-11-23T06:15:08.638Z,4.87
2022-11-23T06:17:36.710Z,5.07
2022-11-23T06:20:09.971Z,4.33
2022-11-23T06:22:42.985Z,5.43
2022-11-23T06:25:10.895Z,3.20
2022-11-23T06:27:58.220Z,4.60
2022-11-23T06:30:31.093Z,5.07
2022-11-23T06:33:05.383Z,4.20
2022-11-23T06:35:39.067Z,5.57
2022-11-23T06:38:06.566Z,4.37
2022-11-23T06:40:34.838Z,3.90
2022-11-23T06:43:05.343Z,3.90
2022-11-23T06:45:40.244Z,4.03
2022-11-23T06:48:11.120Z,4.57
2022-11-23T06:50:43.876Z,4.27
2022-11-23T06:53:12.445Z,2.97
2022-11-23T06:55:47.917Z,3.20
2022-11-23T06:58:19.734Z,3.43
2022-11-23T07:00:47.483Z,3.07
2022-11-23T07:03:19.890Z,3.60
2022-11-23T07:05:49.536Z,3.53
2022-11-23T07:08:19.287Z,4.10
2022-11-23T07:10:46.866Z,4.87
2022-11-23T07:13:17.155Z,7.83
2022-11-23T07:15:46.053Z,8.77
2022-11-23T07:18:15.576Z,9.57
2022-11-23T07:20:49.552Z,4.40
2022-11-23T07:23:17.195Z,6.23
2022-11-23T07:25:44.782Z,4.00
2022-11-23T07:28:13.364Z,6.17
2022-11-23T07:30:40.960Z,5.10
2022-11-23T07:33:11.895Z,3.47
2022-11-23T07:35:41.407Z,6.80
2022-11-23T07:38:09.783Z,4.33
2022-11-23T07:40:38.396Z,3.83
2022-11-23T07:43:07.633Z,4.07
2022-11-23T07:45:36.671Z,3.90
2022-11-23T07:48:08.109Z,3.40
2022-11-23T07:50:37.466Z,4.80
2022-11-23T07:53:05.378Z,3.67
2022-11-23T07:55:33.384Z,3.77
2022-11-23T07:58:01.118Z,2.50
2022-11-23T08:00:29.264Z,4.00
2022-11-23T08:03:26.086Z,3.73
2022-11-23T08:05:46.685Z,4.13
2022-11-23T08:08:14.206Z,3.73
2022-11-23T08:10:46.120Z,3.93
2022-11-23T08:13:16.459Z,3.60
2022-11-23T08:15:46.462Z,4.33
2022-11-23T08:18:16.586Z,2.73
2022-11-23T08:20:44.160Z,4.10
2022-11-23T08:23:12.986Z,2.60
2022-11-23T08:25:40.423Z,4.60
2022-11-23T08:28:07.923Z,4.13
2022-11-23T08:30:35.600Z,3.50
2022-11-23T08:33:03.907Z,3.60
2022-11-23T08:35:31.545Z,3.70
2022-11-23T08:37:59.068Z,3.40
2022-11-23T08:40:28.142Z,2.43
2022-11-23T08:42:55.944Z,2.20
2022-11-23T08:45:23.528Z,4.73
2022-11-23T08:47:51.836Z,2.33
2022-11-23T08:50:19.726Z,2.43
2022-11-23T08:52:47.267Z,4.13
2022-11-23T08:55:14.912Z,2.97
2022-11-23T08:57:43.744Z,3.23
2022-11-23T09:00:11.697Z,9.73
2022-11-23T09:02:39.131Z,5.30
2022-11-23T09:05:07.587Z,5.13
2022-11-23T09:07:35.173Z,3.90
2022-11-23T09:10:02.663Z,3.80
2022-11-23T09:12:30.134Z,3.90
2022-11-23T09:14:58.996Z,4.17
2022-11-23T09:17:26.596Z,2.23
2022-11-23T09:19:54.248Z,5.30
2022-11-23T09:22:21.719Z,3.10
2022-11-23T09:24:49.172Z,2.93
2022-11-23T09:27:16.615Z,4.97
2022-11-23T09:29:44.083Z,3.17
2022-11-23T09:32:13.040Z,3.63
2022-11-23T09:34:40.559Z,2.90
2022-11-23T09:37:08.078Z,2.73
2022-11-23T09:39:35.530Z,2.17
2022-11-23T09:42:21.069Z,4.20
2022-11-23T09:45:04.026Z,2.83
2022-11-23T09:47:43.240Z,2.70
2022-11-23T09:50:13.439Z,2.57
2022-11-23T09:52:42.433Z,5.40
2022-11-23T09:55:14.561Z,3.80
2022-11-23T09:57:43.167Z,1.90
2022-11-23T10:00:18.139Z,3.73
2022-11-23T10:02:47.038Z,3.13
2022-11-23T10:05:16.822Z,4.67
2022-11-23T10:07:50.538Z,5.10
2022-11-23T10:10:23.802Z,4.13
2022-11-23T10:12:55.684Z,2.43
2022-11-23T10:15:27.764Z,4.20
2022-11-23T10:18:10.787Z,1.73
2022-11-23T10:20:51.499Z,3.13
2022-11-23T10:23:22.809Z,2.50
2022-11-23T10:25:51.132Z,4.63
2022-11-23T10:28:20.865Z,6.23
2022-11-23T10:30:49.429Z,3.97
2022-11-23T10:33:22.650Z,4.40
2022-11-23T10:35:50.047Z,4.63
2022-11-23T10:38:19.590Z,2.97
2022-11-23T10:40:54.470Z,3.03
2022-11-23T10:43:23.744Z,3.10
2022-11-23T10:45:54.707Z,3.30
2022-11-23T10:48:35.068Z,3.17
2022-11-23T10:51:16.544Z,2.63
2022-11-23T10:53:45.093Z,3.00
2022-11-23T10:56:13.642Z,4.70
2022-11-23T10:58:43.505Z,5.37
2022-11-23T11:01:13.695Z,3.40
2022-11-23T11:03:42.625Z,4.67
2022-11-23T11:06:11.630Z,3.17
2022-11-23T11:08:50.160Z,4.30
2022-11-23T11:11:22.867Z,4.87
2022-11-23T11:13:50.528Z,3.03
2022-11-23T11:16:20.277Z,3.50
2022-11-23T11:18:49.244Z,4.17
2022-11-23T11:21:20.512Z,3.43
2022-11-23T11:23:52.576Z,5.20
2022-11-23T11:26:21.202Z,4.07
2022-11-23T11:28:50.067Z,3.87
2022-11-23T11:31:31.129Z,1.83
2022-11-23T11:34:03.898Z,4.47
2022-11-23T11:36:34.566Z,5.13
2022-11-23T11:39:19.627Z,2.90
2022-11-23T11:41:48.270Z,2.67
2022-11-23T11:44:18.221Z,3.13
2022-11-23T11:46:48.273Z,3.17
2022-11-23T11:49:19.222Z,5.17
2022-11-23T11:51:47.711Z,4.57
2022-11-23T11:54:19.534Z,3.00
2022-11-23T11:56:47.522Z,3.20
2022-11-23T11:59:17.527Z,2.37
2022-11-23T12:01:49.289Z,3.40
2022-11-23T12:04:19.906Z,3.70
2022-11-23T12:06:52.732Z,2.73
2022-11-23T12:09:22.919Z,5.13
2022-11-23T12:11:50.377Z,7.17
2022-11-23T12:14:17.962Z,8.43
2022-11-23T12:17:04.070Z,8.20
2022-11-23T12:19:40.287Z,3.33
2022-11-23T12:22:13.629Z,2.47
2022-11-23T12:24:49.517Z,4.33
2022-11-23T12:27:23.545Z,2.23
2022-11-23T12:29:59.680Z,3.10
2022-11-23T12:32:33.111Z,2.70
2022-11-23T12:35:19.346Z,2.33
2022-11-23T12:37:52.667Z,3.20
2022-11-23T12:40:27.614Z,2.43
2022-11-23T12:42:58.641Z,4.17
2022-11-23T12:45:32.015Z,8.13
2022-11-23T12:48:02.645Z,3.07
2022-11-23T12:50:31.950Z,3.20
2022-11-23T12:53:04.118Z,6.90
2022-11-23T12:55:37.437Z,3.70
2022-11-23T12:58:06.057Z,7.10
2022-11-23T13:00:37.287Z,2.87
2022-11-23T13:03:23.039Z,4.03
2022-11-23T13:06:04.666Z,5.27
2022-11-23T13:08:59.571Z,2.87
2022-11-23T13:11:32.335Z,2.20
2022-11-23T13:14:04.794Z,2.80
2022-11-23T13:16:43.804Z,2.53
2022-11-23T13:19:17.712Z,2.70
2022-11-23T13:21:46.011Z,2.73
2022-11-23T13:24:27.584Z,3.53
2022-11-23T13:27:13.815Z,4.53
2022-11-23T13:29:48.503Z,4.17
2022-11-23T13:32:34.717Z,2.80
2022-11-23T13:35:02.696Z,5.10
2022-11-23T13:37:30.270Z,6.30
2022-11-23T13:40:06.571Z,4.40
2022-11-23T13:42:35.856Z,4.03
2022-11-23T13:45:22.823Z,5.73
2022-11-23T13:48:04.645Z,1.93
2022-11-23T13:50:32.582Z,2.87
2022-11-23T13:53:01.118Z,3.30
2022-11-23T13:55:34.385Z,2.27
2022-11-23T13:58:16.991Z,2.00
2022-11-23T14:00:50.382Z,4.30
2022-11-23T14:03:36.322Z,2.97
2022-11-23T14:06:04.892Z,5.50
2022-11-23T14:08:34.082Z,4.57
2022-11-23T14:11:02.292Z,2.70
2022-11-23T14:13:33.742Z,2.40
2022-11-23T14:16:04.220Z,3.27
2022-11-23T14:18:47.497Z,4.03
2022-11-23T14:21:15.799Z,3.93
2022-11-23T14:24:02.692Z,10.27
2022-11-23T14:26:34.552Z,9.80
2022-11-23T14:29:16.069Z,6.70
2022-11-23T14:31:50.776Z,4.67
2022-11-23T14:34:21.865Z,4.43
2022-11-23T14:36:54.511Z,45.77
2022-11-23T14:39:52.200Z,133.90
2022-11-23T14:42:21.639Z,108.07
2022-11-23T14:44:50.769Z,281.83
2022-11-23T14:47:27.526Z,258.20
2022-11-23T14:49:55.607Z,120.93
2022-11-23T14:52:24.796Z,97.77
2022-11-23T14:54:53.319Z,345.67
2022-11-23T14:57:21.966Z,172.73
2022-11-23T14:59:50.955Z,47.83
2022-11-23T15:02:21.081Z,68.90
2022-11-23T15:04:58.719Z,73.80
2022-11-23T15:07:28.875Z,55.53
2022-11-23T15:10:02.162Z,28.33
2022-11-23T15:12:30.978Z,9.13
2022-11-23T15:15:00.028Z,3.00
2022-11-23T15:17:27.710Z,5.03
2022-11-23T15:19:58.737Z,5.87
2022-11-23T15:22:27.137Z,4.00
2022-11-23T15:24:54.925Z,2.43
2022-11-23T15:27:25.842Z,2.83
2022-11-23T15:29:54.078Z,7.00
2022-11-23T15:32:33.834Z,2.70
2022-11-23T15:35:06.614Z,4.80
2022-11-23T15:37:37.880Z,2.93
2022-11-23T15:40:07.105Z,5.23
2022-11-23T15:42:34.786Z,3.03
2022-11-23T15:45:02.195Z,4.63
2022-11-23T15:47:31.405Z,6.53
2022-11-23T15:50:01.063Z,4.37
2022-11-23T15:52:31.022Z,4.63
2022-11-23T15:55:07.485Z,7.47
2022-11-23T15:57:38.085Z,6.43
2022-11-23T16:00:06.892Z,6.83
2022-11-23T16:02:45.078Z,8.63
2022-11-23T16:05:15.058Z,8.60
2022-11-23T16:07:54.391Z,5.57
2022-11-23T16:10:25.887Z,7.77
2022-11-23T16:12:54.163Z,6.50
2022-11-23T16:15:32.536Z,5.50
2022-11-23T16:18:00.559Z,9.20
2022-11-23T16:20:29.365Z,9.17
2022-11-23T16:23:00.046Z,8.57
2022-11-23T16:25:29.144Z,6.03
2022-11-23T16:27:59.776Z,11.03
2022-11-23T16:30:28.462Z,9.27
2022-11-23T16:32:55.985Z,7.47
2022-11-23T16:35:23.394Z,9.77
2022-11-23T16:37:50.852Z,8.37
2022-11-23T16:40:19.844Z,8.07
2022-11-23T16:42:51.752Z,9.17
2022-11-23T16:45:19.712Z,9.77
2022-11-23T16:47:54.612Z,13.60
2022-11-23T16:50:22.103Z,14.83
2022-11-23T16:52:49.619Z,11.80
2022-11-23T16:55:17.340Z,9.20
2022-11-23T16:57:46.576Z,10.73
2022-11-23T17:00:16.131Z,12.17
2022-11-23T17:02:43.649Z,11.17
2022-11-23T17:05:14.467Z,8.63
2022-11-23T17:07:41.963Z,19.83
2022-11-23T17:10:09.726Z,19.13
2022-11-23T17:12:37.550Z,13.03
2022-11-23T17:15:07.494Z,14.73
2022-11-23T17:17:35.047Z,10.27
2022-11-23T17:20:04.551Z,13.27
2022-11-23T17:22:32.315Z,16.07
2022-11-23T17:24:59.739Z,29.63
2022-11-23T17:27:27.198Z,21.70
2022-11-23T17:29:57.996Z,18.43
2022-11-23T17:32:26.885Z,13.03
2022-11-23T17:34:54.453Z,8.87
2022-11-23T17:37:22.985Z,11.47
2022-11-23T17:39:50.839Z,9.40
2022-11-23T17:42:18.339Z,14.00
2022-11-23T17:44:45.837Z,10.60
2022-11-23T17:47:17.008Z,11.63
2022-11-23T17:49:45.790Z,11.10
2022-11-23T17:52:13.465Z,9.30
2022-11-23T17:54:40.898Z,9.77
2022-11-23T17:57:10.873Z,10.03
2022-11-23T17:59:38.377Z,13.27
2022-11-23T18:02:05.874Z,12.40
2022-11-23T18:04:33.307Z,8.33
2022-11-23T18:07:02.184Z,11.17
2022-11-23T18:09:29.868Z,8.80
2022-11-23T18:11:57.536Z,8.47
2022-11-23T18:14:28.726Z,9.27
2022-11-23T18:16:56.475Z,8.93
2022-11-23T18:19:23.924Z,10.47
2022-11-23T18:21:51.453Z,10.23
2022-11-23T18:24:20.284Z,10.53
2022-11-23T18:26:47.787Z,11.00
2022-11-23T18:29:17.191Z,8.47
2022-11-23T18:31:45.102Z,9.93
2022-11-23T18:34:12.579Z,10.33
2022-11-23T18:36:39.999Z,8.13
2022-11-23T18:39:07.464Z,10.33
2022-11-23T18:41:36.218Z,9.43
2022-11-23T18:44:03.649Z,7.70
2022-11-23T18:46:33.003Z,9.53
2022-11-23T18:49:00.456Z,9.63
2022-11-23T18:51:28.027Z,12.57
2022-11-23T18:53:55.635Z,8.23
2022-11-23T18:56:23.054Z,10.47
2022-11-23T18:58:51.890Z,9.30
2022-11-23T19:01:20.750Z,8.03
2022-11-23T19:03:49.582Z,8.53
2022-11-23T19:06:18.258Z,7.70
2022-11-23T19:08:46.676Z,7.97
2022-11-23T19:11:17.607Z,12.53
2022-11-23T19:13:45.808Z,11.10
2022-11-23T19:16:16.036Z,12.20
2022-11-23T19:18:44.001Z,10.23
2022-11-23T19:21:15.405Z,11.33
2022-11-23T19:23:43.233Z,9.50
2022-11-23T19:26:10.724Z,9.13
2022-11-23T19:28:38.666Z,9.43
2022-11-23T19:31:14.755Z,14.97
2022-11-23T19:33:42.544Z,13.80
2022-11-23T19:36:11.311Z,24.20
2022-11-23T19:38:38.966Z,17.43
2022-11-23T19:41:06.702Z,11.00
2022-11-23T19:43:34.324Z,11.20
2022-11-23T19:46:02.698Z,14.67
2022-11-23T19:48:31.923Z,7.53
2022-11-23T19:51:00.231Z,9.23
2022-11-23T19:53:30.896Z,9.70
2022-11-23T19:56:02.502Z,9.30
2022-11-23T19:58:32.003Z,8.20
2022-11-23T20:01:03.398Z,8.13
2022-11-23T20:03:35.097Z,8.63
2022-11-23T20:06:03.184Z,19.60
2022-11-23T20:08:30.663Z,15.40
2022-11-23T20:10:58.137Z,10.73
2022-11-23T20:13:25.615Z,8.47
2022-11-23T20:15:53.082Z,8.50
2022-11-23T20:18:22.605Z,6.80
2022-11-23T20:20:54.465Z,6.20
2022-11-23T20:23:22.226Z,6.03
2022-11-23T20:25:49.707Z,7.23
2022-11-23T20:28:17.466Z,8.10
2022-11-23T20:30:44.869Z,8.03
2022-11-23T20:33:12.510Z,8.63
2022-11-23T20:35:39.924Z,4.43
2022-11-23T20:38:08.713Z,5.73
2022-11-23T20:40:36.340Z,5.93
2022-11-23T20:43:03.931Z,9.73
2022-11-23T20:45:31.483Z,6.23
2022-11-23T20:47:59.212Z,5.47
2022-11-23T20:50:27.881Z,6.17
2022-11-23T20:53:00.010Z,8.17
2022-11-23T20:55:29.015Z,7.50
2022-11-23T20:57:56.531Z,6.27
2022-11-23T21:00:24.016Z,6.50
2022-11-23T21:02:52.261Z,7.13
2022-11-23T21:05:20.083Z,7.33
2022-11-23T21:07:48.134Z,6.00
2022-11-23T21:10:30.052Z,5.00
2022-11-23T21:13:16.823Z,6.07
2022-11-23T21:15:44.306Z,6.27
2022-11-23T21:18:12.222Z,8.30
2022-11-23T21:20:40.660Z,8.10
2022-11-23T21:23:08.451Z,6.07
2022-11-23T21:25:36.032Z,7.97
2022-11-23T21:28:04.879Z,6.67
2022-11-23T21:30:32.446Z,6.33
2022-11-23T21:32:59.868Z,5.40
2022-11-23T21:35:27.490Z,6.17
2022-11-23T21:37:55.175Z,6.43
2022-11-23T21:40:22.625Z,7.10
2022-11-23T21:42:52.138Z,6.87
2022-11-23T21:45:20.972Z,7.27
2022-11-23T21:47:48.714Z,9.43
2022-11-23T21:50:16.200Z,7.37
2022-11-23T21:52:43.712Z,6.90
2022-11-23T21:55:11.124Z,7.97
2022-11-23T21:57:38.585Z,6.80
2022-11-23T22:00:06.445Z,4.97
2022-11-23T22:02:41.009Z,5.37
2022-11-23T22:05:08.750Z,5.43
2022-11-23T22:07:36.211Z,4.77
2022-11-23T22:10:03.718Z,10.10
2022-11-23T22:12:31.157Z,6.50
2022-11-23T22:14:58.570Z,6.00
2022-11-23T22:17:25.994Z,7.33
2022-11-23T22:19:54.740Z,5.57
2022-11-23T22:22:22.151Z,6.47
2022-11-23T22:24:49.572Z,6.13
2022-11-23T22:27:16.991Z,8.90
2022-11-23T22:29:44.423Z,5.50
2022-11-23T22:32:11.852Z,6.40
2022-11-23T22:34:39.880Z,7.13
2022-11-23T22:37:10.756Z,4.73
2022-11-23T22:39:38.661Z,5.03
2022-11-23T22:42:06.185Z,5.83
2022-11-23T22:44:34.031Z,7.80
2022-11-23T22:47:01.865Z,6.57
2022-11-23T22:49:29.288Z,5.20
2022-11-23T22:51:56.744Z,6.97
2022-11-23T22:54:25.744Z,4.70
2022-11-23T22:56:53.339Z,5.87
2022-11-23T22:59:20.755Z,6.07
2022-11-23T23:01:48.297Z,5.10
2022-11-23T23:04:15.701Z,5.47
2022-11-23T23:06:43.131Z,5.23
2022-11-23T23:09:10.879Z,6.40
2022-11-23T23:11:39.974Z,5.73
2022-11-23T23:14:07.677Z,6.77
2022-11-23T23:16:35.618Z,5.43
2022-11-23T23:19:03.627Z,5.10
2022-11-23T23:21:31.226Z,5.47
2022-11-23T23:23:59.513Z,6.73
2022-11-23T23:26:27.297Z,4.60
2022-11-23T23:28:56.955Z,8.03
2022-11-23T23:31:25.143Z,6.37
2022-11-23T23:33:53.787Z,6.70
2022-11-23T23:36:22.000Z,4.97
2022-11-23T23:38:49.693Z,6.40
2022-11-23T23:41:18.223Z,4.50
2022-11-23T23:43:47.891Z,6.20
2022-11-23T23:46:16.760Z,4.87
2022-11-23T23:48:44.402Z,6.27
2022-11-23T23:51:12.590Z,5.80
2022-11-23T23:53:40.516Z,4.53
2022-11-23T23:56:09.221Z,8.27
2022-11-23T23:58:36.671Z,6.23
